• Join FlightAware (Why Join?)
  • Login
  • US Flag 
10:27AM EDT


 

Airport Tracker/Info


-or-


 

Live Flight TrackerFlight Track Log ✈ VH-SOU ✈ 14-May-2013 ✈ YSBK / BWU - YCBA / CAZ

Flight Track Log - Related Links

Times and Time Zones

All times are in EDT time to prevent confusion due to time zone crossing. See the VH-SOU flight status page for this flight to view local times or setup timezone preferences in your user account.

Time Position Orientation Groundspeed Altitude Reporting Facility
EDT Latitude Longitude Course Direction KTS MPH feet Rate Location/Type
04:09PM -33.8913 150.9383 306° West 167 192 2,000  Level Aus ATC (RADAR)
04:10PM -33.8577 150.8824 306° West 204 235 3,300 1,680 Climbing Aus ATC (RADAR)
04:11PM -33.8383 150.8092 288° West 192 221 5,500 1,740 Climbing Aus ATC (RADAR)
04:12PM -33.8303 150.7426 278° West 194 223 7,000 1,500 Climbing Aus ATC (RADAR)
04:14PM -33.8071 150.6668 290° West 202 232 8,800 1,560 Climbing Aus ATC (RADAR)
04:15PM -33.7879 150.6008 289° West 204 235 10,400 1,560 Climbing Aus ATC (RADAR)
04:16PM -33.7695 150.5276 287° West 202 232 12,100 1,380 Climbing Aus ATC (RADAR)
04:18PM -33.7309 150.3769 287° West 214 246 15,000 1,320 Climbing Aus ATC (RADAR)
04:19PM -33.7080 150.2912 288° West 207 238 16,700 1,200 Climbing Aus ATC (RADAR)
04:20PM -33.6736 150.2177 299° West 212 244 17,900 1,020 Climbing Aus ATC (RADAR)
04:21PM -33.6417 150.1478 299° West 214 246 19,100 1,020 Climbing Aus ATC (RADAR)
04:22PM -33.6121 150.0831 299° West 216 249 20,100 960 Climbing Aus ATC (RADAR)
04:23PM -33.5823 150.0189 299° West 214 246 21,100 960 Climbing Aus ATC (RADAR)
04:24PM -33.5499 149.9484 299° West 217 250 22,100 960 Climbing Aus ATC (RADAR)
04:25PM -33.5176 149.8785 299° West 216 249 23,200 900 Climbing Aus ATC (RADAR)
04:27PM -33.4848 149.8078 299° West 220 253 24,100 780 Climbing Aus ATC (RADAR)
04:28PM -33.4542 149.7423 299° West 220 253 24,900 840 Climbing Aus ATC (RADAR)
04:29PM -33.4206 149.6701 299° West 225 259 25,900 480 Climbing Aus ATC (RADAR)
04:30PM -33.3878 149.5991 299° West 246 283 26,000  Climbing Aus ATC (RADAR)
04:31PM -33.3478 149.5125 299° West 276 318 26,000  Level Aus ATC (RADAR)
04:32PM -33.2957 149.4000 299° West 288 331 26,000  Level Aus ATC (RADAR)
04:33PM -33.2461 149.2934 299° West 289 333 26,000  Level Aus ATC (RADAR)
04:34PM -33.2033 149.2012 299° West 289 333 26,000  Level Aus ATC (RADAR)
04:35PM -33.1570 149.1024 299° West 287 330 26,000  Level Aus ATC (RADAR)
04:37PM -33.1141 149.0103 299° West 289 333 26,000  Level Aus ATC (RADAR)
04:38PM -33.0739 148.9250 299° West 291 335 26,000  Level Aus ATC (RADAR)
04:39PM -33.0274 148.8256 299° West 291 335 26,000  Level Aus ATC (RADAR)
04:40PM -32.9840 148.7337 299° West 291 335 26,000  Level Aus ATC (RADAR)
04:41PM -32.9405 148.6424 300° West 290 334 26,000  Level Aus ATC (RADAR)
04:42PM -32.9006 148.5576 299° West 290 334 26,000  Level Aus ATC (RADAR)
04:43PM -32.8570 148.4662 300° West 289 333 26,000  Level Aus ATC (RADAR)
04:44PM -32.8130 148.3746 300° West 291 335 26,000  Level Aus ATC (RADAR)
04:45PM -32.7697 148.2827 299° West 289 333 26,000  Level Aus ATC (RADAR)
04:47PM -32.6955 148.1284 300° West 290 334 26,000  Level Aus ATC (RADAR)
04:48PM -32.6488 148.0307 300° West 288 331 26,000  Level Aus ATC (RADAR)
04:49PM -32.6049 147.9399 300° West 289 333 26,000  Level Aus ATC (RADAR)
04:50PM -32.5644 147.8561 300° West 291 335 26,100  Climbing Aus ATC (RADAR)
04:51PM -32.5205 147.7654 300° West 290 334 26,100  Level Aus ATC (RADAR)
04:52PM -32.4798 147.6818 300° West 290 334 26,100  Level Aus ATC (RADAR)
04:53PM -32.4359 147.5914 300° West 289 333 26,100  Level Aus ATC (RADAR)
04:54PM -32.3921 147.5009 300° West 289 333 26,100  Level Aus ATC (RADAR)
04:56PM -32.3479 147.4112 300° West 289 333 26,100  Level Aus ATC (RADAR)
04:57PM -32.3042 147.3217 300° West 287 330 26,100  Level Aus ATC (RADAR)
04:58PM -32.2605 147.2330 300° West 287 330 26,100  Level Aus ATC (RADAR)
04:59PM -32.2205 147.1512 300° West 285 328 26,100  Level Aus ATC (RADAR)
05:01PM -32.1435 146.9955 300° West 283 326 26,100 120 Level Aus ATC (RADAR)
05:02PM -32.0788 146.8699 301° West 278 320 26,700  Climbing Aus ATC (RADAR)
05:03PM -32.0413 146.7976 301° West 278 320 26,100 -1,200 Descending Aus ATC (RADAR)
05:06PM -31.9197 146.5467 300° West 335 386 22,200 -1,440 Descending Aus ATC (RADAR)
05:06PM -31.9076 146.5236 302° West 335 386 21,700 -2,040 Descending Aus ATC (RADAR)
05:09PM -31.7703 146.2511 301° West 500 -6,900 Descending Aus ATC (Calculated)
05:11PM -31.7254 146.1624 301° West  Level FlightAware Approximate
05:12PM -31.6885 146.0897 301° West  Level FlightAware Approximate
05:13PM -31.6515 146.0170 301° West  Level FlightAware Approximate
05:14PM -31.6145 145.9443 301° West  Level FlightAware Approximate
05:14PM -31.5383 145.7939 203° Southwest  Level Aus ATC (Calculated)
05:16PM -31.5383 145.7939 114° Southeast  Level Estimated
05:17PM -31.5383 145.7939 114° Southeast  Level Estimated